Terminal Aerodrome Forecast
Issued by NWS

Current Version | Previous Version | Text Only | Print | Product List | Glossary On
Versions: 1 2 3 4 5 6 7 8 9 10 11 12 13 14 15 16 17 18 19 20 21 22 23 24 25 26 27 28 29 30 31 32 33 34 35 36
000
FTUS45 KPSR 020800 AAB
TAFPHX
TAF AMD
KPHX 020842Z 0209/0306 13005KT P6SM VCSH FEW080 SCT120 BKN150
     FM021300 11006KT P6SM FEW080 SCT100 BKN150
     FM022200 23010KT P6SM VCTS SCT080CB BKN100
     FM030300 14012KT P6SM VCSH FEW050 SCT080 BKN100=

USA.gov is the U.S. government's official web portal to all federal, state and local government web resources and services.